Terminal Aerodrome Forecast
Issued by NWS Mt. Holly, NJ

Current Version | Previous Version | Text Only | Print | Product List | Glossary On
Versions: 1 2 3 4 5 6 7 8 9 10 11 12 13 14 15 16 17 18 19 20 21 22 23 24 25 26 27 28 29 30 31 32 33 34
088
FTUS41 KPHI 282108 AAA
TAFPHL
TAF AMD
KPHL 282108Z 2821/2924 05010KT P6SM -SHRA OVC035
     FM282300 07008KT 6SM BR VCSH OVC035
     FM290300 06008KT 4SM BR OVC011
     FM290900 06010KT 3SM BR BKN009 OVC030
     FM291200 06010KT 6SM BR BKN015 OVC040
     FM291900 07007KT P6SM SCT015 OVC040=

USA.gov is the U.S. government's official web portal to all federal, state and local government web resources and services.